createdAt,value
2023-02-28T00:01:31.725Z,46.61
2023-02-28T00:03:59.105Z,46.88
2023-02-28T00:06:25.943Z,46.42
2023-02-28T00:08:53.040Z,46.73
2023-02-28T00:11:19.919Z,46.71
2023-02-28T00:13:47.620Z,46.67
2023-02-28T00:16:20.429Z,46.92
2023-02-28T00:18:48.664Z,46.69
2023-02-28T00:21:16.300Z,46.72
2023-02-28T00:23:43.580Z,46.96
2023-02-28T00:26:10.356Z,46.72
2023-02-28T00:28:37.477Z,46.75
2023-02-28T00:31:04.447Z,46.75
2023-02-28T00:33:31.571Z,46.90
2023-02-28T00:36:09.165Z,46.68
2023-02-28T00:38:36.335Z,46.90
2023-02-28T00:41:06.174Z,46.89
2023-02-28T00:43:34.464Z,46.81
2023-02-28T00:46:01.593Z,46.60
2023-02-28T00:48:28.738Z,47.07
2023-02-28T00:50:55.572Z,46.91
2023-02-28T00:53:23.087Z,47.14
2023-02-28T00:55:50.904Z,47.10
2023-02-28T00:58:18.027Z,46.78
2023-02-28T01:00:48.958Z,46.81
2023-02-28T01:03:17.901Z,46.68
2023-02-28T01:05:44.787Z,46.91
2023-02-28T01:08:12.047Z,47.14
2023-02-28T01:10:39.345Z,46.71
2023-02-28T01:13:06.414Z,47.04
2023-02-28T01:15:33.525Z,47.00
2023-02-28T01:18:00.593Z,46.86
2023-02-28T01:20:27.366Z,47.07
2023-02-28T01:22:54.419Z,47.09
2023-02-28T01:25:21.155Z,46.86
2023-02-28T01:27:48.280Z,47.16
2023-02-28T01:30:15.512Z,47.23
2023-02-28T01:32:42.584Z,47.05
2023-02-28T01:35:09.555Z,47.27
2023-02-28T01:37:36.983Z,47.07
2023-02-28T01:40:04.277Z,47.19
2023-02-28T01:42:31.339Z,47.19
2023-02-28T01:45:04.330Z,47.24
2023-02-28T01:47:34.322Z,47.28
2023-02-28T01:50:02.174Z,47.20
2023-02-28T01:52:29.436Z,47.05
2023-02-28T01:54:56.929Z,47.12
2023-02-28T01:57:26.463Z,47.35
2023-02-28T01:59:59.521Z,47.27
2023-02-28T02:02:26.736Z,47.21
2023-02-28T02:05:00.000Z,47.30
2023-02-28T02:07:27.115Z,47.16
2023-02-28T02:10:17.039Z,47.12
2023-02-28T02:13:15.155Z,47.32
2023-02-28T02:15:47.741Z,47.22
2023-02-28T02:18:27.064Z,47.16
2023-02-28T02:20:56.740Z,47.37
2023-02-28T02:23:42.520Z,46.79
2023-02-28T02:26:28.146Z,47.04
2023-02-28T02:29:08.279Z,47.28
2023-02-28T02:31:43.294Z,46.98
2023-02-28T02:34:13.290Z,47.33
2023-02-28T02:36:41.462Z,47.29
2023-02-28T02:39:17.822Z,47.38
2023-02-28T02:41:53.151Z,47.52
2023-02-28T02:44:28.505Z,47.55
2023-02-28T02:47:22.007Z,47.59
2023-02-28T02:49:53.400Z,46.98
2023-02-28T02:52:23.351Z,47.22
2023-02-28T02:54:50.893Z,47.44
2023-02-28T02:57:41.550Z,47.62
2023-02-28T03:00:09.520Z,47.33
2023-02-28T03:02:37.399Z,47.10
2023-02-28T03:05:07.720Z,47.59
2023-02-28T03:07:34.435Z,47.67
2023-02-28T03:10:02.315Z,47.58
2023-02-28T03:12:35.096Z,47.39
2023-02-28T03:15:09.233Z,47.77
2023-02-28T03:17:35.921Z,47.51
2023-02-28T03:20:17.940Z,47.94
2023-02-28T03:22:50.671Z,47.49
2023-02-28T03:25:32.658Z,47.73
2023-02-28T03:28:02.286Z,48.07
2023-02-28T03:30:55.717Z,47.59
2023-02-28T03:33:43.159Z,47.86
2023-02-28T03:36:14.087Z,47.77
2023-02-28T03:38:40.844Z,47.93
2023-02-28T03:41:13.272Z,47.98
2023-02-28T03:43:41.418Z,48.00
2023-02-28T03:46:11.475Z,47.94
2023-02-28T03:48:45.257Z,48.06
2023-02-28T03:51:15.257Z,47.98
2023-02-28T03:54:03.882Z,48.00
2023-02-28T03:56:34.144Z,47.75
2023-02-28T03:59:21.683Z,48.05
2023-02-28T04:01:49.608Z,48.05
2023-02-28T04:04:17.137Z,47.99
2023-02-28T04:06:44.362Z,47.94
2023-02-28T04:11:46.977Z,48.09
2023-02-28T04:14:13.786Z,48.17
2023-02-28T04:16:41.928Z,47.61
2023-02-28T04:19:09.544Z,47.82
2023-02-28T04:21:40.085Z,48.12
2023-02-28T04:24:08.453Z,48.25
2023-02-28T04:26:37.037Z,47.72
2023-02-28T04:29:05.249Z,48.00
2023-02-28T04:31:33.056Z,48.16
2023-02-28T04:34:00.275Z,48.15
2023-02-28T04:36:27.594Z,47.68
2023-02-28T04:38:54.566Z,47.80
2023-02-28T04:41:21.938Z,48.05
2023-02-28T04:43:48.662Z,47.73
2023-02-28T04:46:16.359Z,47.74
2023-02-28T04:48:44.720Z,47.80
2023-02-28T04:51:13.149Z,47.55
2023-02-28T04:53:40.743Z,47.76
2023-02-28T04:56:08.282Z,47.98
2023-02-28T04:58:35.420Z,47.80
2023-02-28T05:01:18.221Z,47.92
2023-02-28T05:03:45.064Z,47.81
2023-02-28T05:06:12.651Z,48.04
2023-02-28T05:08:39.787Z,47.86
2023-02-28T05:11:26.771Z,47.53
2023-02-28T05:13:54.716Z,48.02
2023-02-28T05:16:21.995Z,48.01
2023-02-28T05:18:48.908Z,47.53
2023-02-28T05:21:25.585Z,47.86
2023-02-28T05:23:53.483Z,47.47
2023-02-28T05:26:20.760Z,47.60
2023-02-28T05:28:47.516Z,47.46
2023-02-28T05:31:14.850Z,47.63
2023-02-28T05:33:41.630Z,47.68
2023-02-28T05:36:09.013Z,47.81
2023-02-28T05:38:37.830Z,47.86
2023-02-28T05:41:12.451Z,47.74
2023-02-28T05:43:39.246Z,47.85
2023-02-28T05:46:07.449Z,47.56
2023-02-28T05:48:35.429Z,47.90
2023-02-28T05:51:03.547Z,47.84
2023-02-28T05:53:30.436Z,47.63
2023-02-28T05:55:57.521Z,47.89
2023-02-28T05:58:26.467Z,47.52
2023-02-28T06:00:53.527Z,48.08
2023-02-28T06:03:20.275Z,47.58
2023-02-28T06:05:47.116Z,47.87
2023-02-28T06:08:14.181Z,47.99
2023-02-28T06:10:40.944Z,47.83
2023-02-28T06:13:08.011Z,47.86
2023-02-28T06:15:34.932Z,48.13
2023-02-28T06:18:02.018Z,47.70
2023-02-28T06:20:31.631Z,47.79
2023-02-28T06:23:01.563Z,48.05
2023-02-28T06:25:28.448Z,47.68
2023-02-28T06:27:55.744Z,47.94
2023-02-28T06:30:26.251Z,48.18
2023-02-28T06:32:54.048Z,47.85
2023-02-28T06:35:20.985Z,47.85
2023-02-28T06:37:48.252Z,47.98
2023-02-28T06:40:15.281Z,47.92
2023-02-28T06:42:42.502Z,47.96
2023-02-28T06:45:10.665Z,48.00
2023-02-28T06:47:39.123Z,48.26
2023-02-28T06:50:06.507Z,48.35
2023-02-28T06:52:33.828Z,48.19
2023-02-28T06:55:04.001Z,48.40
2023-02-28T06:57:34.596Z,48.37
2023-02-28T07:00:01.975Z,48.17
2023-02-28T07:02:29.124Z,48.41
2023-02-28T07:04:56.659Z,48.24
2023-02-28T07:07:23.765Z,47.88
2023-02-28T07:09:50.504Z,48.41
2023-02-28T07:12:17.610Z,48.24
2023-02-28T07:14:44.335Z,48.52
2023-02-28T07:17:13.018Z,48.40
2023-02-28T07:19:40.338Z,48.47
2023-02-28T07:22:07.821Z,48.45
2023-02-28T07:24:34.662Z,48.45
2023-02-28T07:27:02.517Z,48.25
2023-02-28T07:29:29.569Z,48.63
2023-02-28T07:31:57.040Z,48.21
2023-02-28T07:34:23.905Z,48.36
2023-02-28T07:36:54.598Z,48.47
2023-02-28T07:39:22.281Z,48.40
2023-02-28T07:41:49.447Z,47.98
2023-02-28T07:44:16.205Z,48.23
2023-02-28T07:46:43.354Z,48.28
2023-02-28T07:49:10.160Z,48.42
2023-02-28T07:51:37.397Z,48.21
2023-02-28T07:54:04.404Z,48.38
2023-02-28T07:56:31.802Z,48.28
2023-02-28T07:58:58.840Z,48.19
2023-02-28T08:01:26.206Z,48.62
2023-02-28T08:03:53.070Z,48.33
2023-02-28T08:06:22.605Z,48.32
2023-02-28T08:08:49.626Z,48.16
2023-02-28T08:11:17.252Z,48.21
2023-02-28T08:13:45.117Z,48.27
2023-02-28T08:16:15.382Z,48.18
2023-02-28T08:18:42.291Z,48.21
2023-02-28T08:21:10.125Z,48.38
2023-02-28T08:23:37.105Z,48.46
2023-02-28T08:26:04.759Z,48.21
2023-02-28T08:28:31.590Z,48.39
2023-02-28T08:30:58.724Z,48.26
2023-02-28T08:33:25.702Z,48.25
2023-02-28T08:35:56.547Z,48.55
2023-02-28T08:38:23.883Z,48.34
2023-02-28T08:40:50.978Z,48.45
2023-02-28T08:43:17.882Z,48.24
2023-02-28T08:45:45.047Z,48.53
2023-02-28T08:48:11.862Z,48.42
2023-02-28T08:50:38.909Z,48.26
2023-02-28T08:53:05.678Z,48.03
2023-02-28T08:55:32.728Z,48.24
2023-02-28T08:57:59.568Z,48.38
2023-02-28T09:00:26.647Z,48.15
2023-02-28T09:02:53.541Z,48.01
2023-02-28T09:05:20.634Z,47.80
2023-02-28T09:07:47.379Z,47.55
2023-02-28T09:10:14.516Z,47.87
2023-02-28T09:12:41.256Z,47.64
2023-02-28T09:15:08.891Z,47.87
2023-02-28T09:17:35.700Z,47.92
2023-02-28T09:20:02.729Z,47.66
2023-02-28T09:22:29.571Z,47.77
2023-02-28T09:24:56.632Z,47.59
2023-02-28T09:27:23.367Z,47.90
2023-02-28T09:29:50.562Z,47.66
2023-02-28T09:32:19.099Z,47.66
2023-02-28T09:34:46.319Z,47.58
2023-02-28T09:37:13.065Z,47.87
2023-02-28T09:39:40.112Z,47.74
2023-02-28T09:42:08.724Z,47.71
2023-02-28T09:44:41.273Z,47.96
2023-02-28T09:47:16.170Z,47.45
2023-02-28T09:49:46.735Z,47.18
2023-02-28T09:52:19.010Z,46.68
2023-02-28T09:54:46.208Z,47.31
2023-02-28T09:57:36.046Z,47.18
2023-02-28T10:00:19.400Z,46.09
2023-02-28T10:02:54.968Z,46.56
2023-02-28T10:05:24.695Z,46.04
2023-02-28T10:07:59.968Z,45.87
2023-02-28T10:10:39.444Z,46.05
2023-02-28T10:13:14.299Z,45.57
2023-02-28T10:15:41.587Z,45.74
2023-02-28T10:18:12.863Z,46.25
2023-02-28T10:20:41.219Z,45.57
2023-02-28T10:23:13.352Z,45.18
2023-02-28T10:25:40.600Z,45.19
2023-02-28T10:28:14.789Z,44.65
2023-02-28T10:30:49.850Z,44.91
2023-02-28T10:33:23.656Z,44.78
2023-02-28T10:35:51.506Z,44.83
2023-02-28T10:38:21.284Z,44.74
2023-02-28T10:40:48.438Z,44.92
2023-02-28T10:43:19.247Z,44.91
2023-02-28T10:46:09.536Z,45.46
2023-02-28T10:48:45.082Z,44.89
2023-02-28T10:51:13.512Z,44.80
2023-02-28T10:54:00.994Z,44.92
2023-02-28T10:56:28.968Z,44.71
2023-02-28T10:59:31.416Z,45.06
2023-02-28T11:01:58.677Z,45.35
2023-02-28T11:04:30.212Z,45.31
2023-02-28T11:07:01.804Z,45.22
2023-02-28T11:09:32.806Z,45.62
2023-02-28T11:11:59.913Z,44.92
2023-02-28T11:14:28.676Z,44.89
2023-02-28T11:16:55.967Z,45.10
2023-02-28T11:19:39.092Z,45.10
2023-02-28T11:22:06.161Z,45.30
2023-02-28T11:24:36.534Z,45.31
2023-02-28T11:27:03.862Z,45.39
2023-02-28T11:29:32.311Z,45.24
2023-02-28T11:32:05.456Z,45.04
2023-02-28T11:34:32.892Z,45.24
2023-02-28T11:37:00.246Z,44.95
2023-02-28T11:39:27.733Z,45.16
2023-02-28T11:42:33.363Z,44.87
2023-02-28T11:45:13.001Z,44.57
2023-02-28T11:47:55.090Z,45.03
2023-02-28T11:50:48.080Z,44.79
2023-02-28T11:53:24.231Z,45.03
2023-02-28T11:55:57.077Z,45.02
2023-02-28T11:58:42.183Z,44.84
2023-02-28T12:01:25.249Z,44.95
2023-02-28T12:04:18.474Z,45.39
2023-02-28T12:07:10.300Z,45.18
2023-02-28T12:09:42.775Z,45.24
2023-02-28T12:12:32.854Z,45.17
2023-02-28T12:15:33.941Z,45.28
2023-02-28T12:18:11.216Z,44.76
2023-02-28T12:20:47.580Z,45.30
2023-02-28T12:23:23.316Z,45.67
2023-02-28T12:25:53.609Z,45.66
2023-02-28T12:28:23.164Z,45.87
2023-02-28T12:31:01.217Z,45.82
2023-02-28T12:33:33.694Z,45.81
2023-02-28T12:36:02.137Z,46.51
2023-02-28T12:38:48.325Z,46.81
2023-02-28T12:42:11.045Z,45.67
2023-02-28T12:44:46.144Z,45.35
2023-02-28T12:47:17.752Z,46.09
2023-02-28T12:49:49.111Z,46.16
2023-02-28T12:52:18.808Z,46.14
2023-02-28T12:54:56.144Z,46.52
2023-02-28T12:57:33.219Z,46.43
2023-02-28T13:00:06.292Z,46.06
2023-02-28T13:03:04.520Z,46.37
2023-02-28T13:05:46.283Z,46.53
2023-02-28T13:08:31.995Z,46.16
2023-02-28T13:10:58.761Z,46.57
2023-02-28T13:13:32.905Z,47.25
2023-02-28T13:16:03.524Z,47.37
2023-02-28T13:18:41.177Z,47.04
2023-02-28T13:21:29.949Z,46.82
2023-02-28T13:23:59.914Z,45.58
2023-02-28T13:26:52.952Z,45.77
2023-02-28T13:29:29.481Z,47.17
2023-02-28T13:32:09.203Z,46.54
2023-02-28T13:34:43.291Z,46.00
2023-02-28T13:37:22.483Z,46.65
2023-02-28T13:39:50.262Z,46.13
2023-02-28T13:42:23.094Z,46.62
2023-02-28T13:45:02.475Z,46.11
2023-02-28T13:47:29.985Z,46.98
2023-02-28T13:50:26.529Z,46.78
2023-02-28T13:53:12.005Z,46.75
2023-02-28T13:56:08.717Z,47.22
2023-02-28T13:58:56.442Z,46.97
2023-02-28T14:01:40.147Z,46.73
2023-02-28T14:04:28.610Z,46.63
2023-02-28T14:06:55.943Z,47.06
2023-02-28T14:09:31.740Z,46.99
2023-02-28T14:11:59.106Z,46.94
2023-02-28T14:14:38.126Z,46.72
2023-02-28T14:17:10.655Z,47.02
2023-02-28T14:19:38.119Z,46.70
2023-02-28T14:22:43.566Z,45.99
2023-02-28T14:25:28.711Z,46.50
2023-02-28T14:28:12.203Z,46.84
2023-02-28T14:30:51.751Z,46.73
2023-02-28T14:33:31.014Z,46.16
2023-02-28T14:36:05.730Z,46.85
2023-02-28T14:38:47.508Z,46.89
2023-02-28T14:41:23.481Z,46.76
2023-02-28T14:43:52.702Z,46.08
2023-02-28T14:46:20.283Z,45.95
2023-02-28T14:48:48.627Z,45.42
2023-02-28T14:51:19.402Z,46.26
2023-02-28T14:53:46.539Z,46.17
2023-02-28T14:56:24.851Z,46.32
2023-02-28T14:58:56.055Z,46.57
2023-02-28T15:01:23.633Z,46.38
2023-02-28T15:03:58.639Z,46.18
2023-02-28T15:06:26.811Z,46.52
2023-02-28T15:09:18.003Z,46.86
2023-02-28T15:11:47.480Z,46.62
2023-02-28T15:14:20.424Z,46.68
2023-02-28T15:16:50.691Z,46.94
2023-02-28T15:19:26.081Z,46.73
2023-02-28T15:22:01.374Z,46.86
2023-02-28T15:24:32.785Z,46.59
2023-02-28T15:27:01.189Z,46.70
2023-02-28T15:29:29.711Z,46.43
2023-02-28T15:32:03.643Z,46.63
2023-02-28T15:34:45.881Z,46.51
2023-02-28T15:37:32.120Z,46.53
2023-02-28T15:40:32.878Z,46.54
2023-02-28T15:43:16.742Z,46.66
2023-02-28T15:45:54.269Z,46.55
2023-02-28T15:48:22.555Z,46.59
2023-02-28T15:50:58.115Z,46.67
2023-02-28T15:53:33.612Z,47.04
2023-02-28T15:56:06.355Z,46.82
2023-02-28T15:58:33.779Z,46.89
2023-02-28T16:01:02.671Z,46.93
2023-02-28T16:03:45.427Z,47.03
2023-02-28T16:06:35.586Z,46.83
2023-02-28T16:09:02.691Z,46.80
2023-02-28T16:11:30.292Z,46.74
2023-02-28T16:13:57.316Z,46.85
2023-02-28T16:16:25.390Z,46.80
2023-02-28T16:18:52.340Z,46.70
2023-02-28T16:21:19.458Z,46.41
2023-02-28T16:23:46.269Z,46.55
2023-02-28T16:26:19.850Z,46.58
2023-02-28T16:28:46.690Z,46.54
2023-02-28T16:31:17.440Z,46.70
2023-02-28T16:33:45.754Z,46.60
2023-02-28T16:36:17.745Z,46.39
2023-02-28T16:38:44.653Z,46.59
2023-02-28T16:41:17.598Z,46.78
2023-02-28T16:43:44.961Z,46.52
2023-02-28T16:46:13.779Z,46.60
2023-02-28T16:48:41.560Z,46.42
2023-02-28T16:51:17.711Z,46.72
2023-02-28T16:53:44.901Z,46.60
2023-02-28T16:56:22.638Z,46.73
2023-02-28T16:58:49.682Z,46.67
2023-02-28T17:01:17.272Z,46.77
2023-02-28T17:03:44.149Z,47.02
2023-02-28T17:06:20.314Z,48.16
2023-02-28T17:08:47.364Z,47.53
2023-02-28T17:11:14.524Z,47.41
2023-02-28T17:13:41.305Z,47.58
2023-02-28T17:16:30.818Z,47.60
2023-02-28T17:18:59.752Z,47.43
2023-02-28T17:21:26.857Z,47.62
2023-02-28T17:23:53.650Z,47.49
2023-02-28T17:26:21.056Z,47.56
2023-02-28T17:28:49.011Z,47.43
2023-02-28T17:31:16.223Z,47.36
2023-02-28T17:33:43.118Z,47.35
2023-02-28T17:36:17.368Z,47.34
2023-02-28T17:38:44.228Z,47.54
2023-02-28T17:41:11.966Z,47.61
2023-02-28T17:43:38.733Z,47.63
2023-02-28T17:46:06.494Z,47.18
2023-02-28T17:48:34.162Z,47.57
2023-02-28T17:51:01.266Z,47.58
2023-02-28T17:53:28.251Z,47.55
2023-02-28T17:55:55.338Z,47.33
2023-02-28T17:58:22.187Z,47.12
2023-02-28T18:00:54.678Z,47.08
2023-02-28T18:03:21.891Z,47.20
2023-02-28T18:05:49.165Z,47.27
2023-02-28T18:08:15.986Z,47.24
2023-02-28T18:10:43.146Z,47.07
2023-02-28T18:13:13.497Z,47.05
2023-02-28T18:15:40.762Z,47.54
2023-02-28T18:18:07.734Z,47.36
2023-02-28T18:20:35.470Z,47.69
2023-02-28T18:23:02.378Z,47.45
2023-02-28T18:25:29.646Z,47.75
2023-02-28T18:27:59.335Z,47.64
2023-02-28T18:30:31.484Z,47.74
2023-02-28T18:32:59.119Z,47.61
2023-02-28T18:35:35.396Z,47.50
2023-02-28T18:38:15.010Z,47.76
2023-02-28T18:40:42.469Z,47.66
2023-02-28T18:43:09.585Z,47.84
2023-02-28T18:45:38.552Z,47.88
2023-02-28T18:48:05.855Z,47.61
2023-02-28T18:50:32.954Z,47.73
2023-02-28T18:52:59.878Z,47.71
2023-02-28T18:55:27.903Z,47.64
2023-02-28T18:57:54.747Z,47.74
2023-02-28T19:00:22.729Z,48.03
2023-02-28T19:02:50.623Z,47.83
2023-02-28T19:05:18.524Z,47.71
2023-02-28T19:07:46.012Z,47.78
2023-02-28T19:10:13.565Z,47.82
2023-02-28T19:12:42.346Z,47.80
2023-02-28T19:15:09.827Z,48.13
2023-02-28T19:17:36.850Z,47.78
2023-02-28T19:20:04.999Z,47.92
2023-02-28T19:22:32.025Z,47.71
2023-02-28T19:24:59.230Z,48.17
2023-02-28T19:27:26.044Z,48.03
2023-02-28T19:29:53.301Z,47.83
2023-02-28T19:32:20.490Z,48.21
2023-02-28T19:34:47.892Z,48.20
2023-02-28T19:37:14.733Z,48.04
2023-02-28T19:39:45.305Z,48.16
2023-02-28T19:42:14.027Z,48.12
2023-02-28T19:44:41.389Z,47.95
2023-02-28T19:47:08.333Z,48.37
2023-02-28T19:49:35.449Z,48.03
2023-02-28T19:52:02.973Z,48.00
2023-02-28T19:54:30.452Z,48.22
2023-02-28T19:56:58.474Z,48.43
2023-02-28T19:59:31.324Z,48.22
2023-02-28T20:02:05.723Z,48.40
2023-02-28T20:04:32.877Z,48.28
2023-02-28T20:06:59.731Z,48.55
2023-02-28T20:09:31.003Z,48.56
2023-02-28T20:11:59.500Z,48.51
2023-02-28T20:14:26.816Z,48.47
2023-02-28T20:16:54.337Z,48.32
2023-02-28T20:19:22.624Z,48.48
2023-02-28T20:21:49.418Z,48.36
2023-02-28T20:24:16.761Z,48.58
2023-02-28T20:26:43.666Z,48.37
2023-02-28T20:29:11.810Z,48.40
2023-02-28T20:31:38.722Z,48.66
2023-02-28T20:34:05.916Z,48.60
2023-02-28T20:36:33.041Z,48.84
2023-02-28T20:39:00.610Z,48.95
2023-02-28T20:41:27.463Z,49.27
2023-02-28T20:43:55.768Z,49.38
2023-02-28T20:46:22.728Z,50.18
2023-02-28T20:48:49.904Z,51.36
2023-02-28T20:51:16.845Z,52.88
2023-02-28T20:53:43.933Z,53.91
2023-02-28T20:56:13.742Z,53.95
2023-02-28T20:58:40.957Z,55.66
2023-02-28T21:01:18.553Z,55.80
2023-02-28T21:03:49.454Z,55.99
2023-02-28T21:06:20.296Z,54.20
2023-02-28T21:08:47.454Z,53.26
2023-02-28T21:11:19.037Z,52.68
2023-02-28T21:13:46.612Z,52.36
2023-02-28T21:16:15.055Z,52.42
2023-02-28T21:18:42.305Z,52.16
2023-02-28T21:21:17.005Z,51.89
2023-02-28T21:23:46.600Z,51.74
2023-02-28T21:26:15.440Z,51.86
2023-02-28T21:28:44.274Z,51.41
2023-02-28T21:31:13.406Z,51.48
2023-02-28T21:33:40.706Z,51.46
2023-02-28T21:36:10.039Z,51.58
2023-02-28T21:38:37.918Z,51.13
2023-02-28T21:41:09.329Z,51.20
2023-02-28T21:43:36.413Z,51.18
2023-02-28T21:46:08.081Z,51.00
2023-02-28T21:48:35.250Z,50.98
2023-02-28T21:51:06.648Z,51.04
2023-02-28T21:53:35.891Z,50.78
2023-02-28T21:56:16.596Z,50.76
2023-02-28T21:58:43.709Z,50.78
2023-02-28T22:01:12.264Z,50.72
2023-02-28T22:03:39.380Z,50.56
2023-02-28T22:06:26.424Z,50.74
2023-02-28T22:08:56.418Z,50.48
2023-02-28T22:11:23.746Z,50.42
2023-02-28T22:13:56.163Z,50.89
2023-02-28T22:16:23.858Z,50.57
2023-02-28T22:18:50.940Z,50.56
2023-02-28T22:21:18.145Z,50.49
2023-02-28T22:23:45.550Z,50.44
2023-02-28T22:26:13.942Z,50.48
2023-02-28T22:28:41.140Z,50.12
2023-02-28T22:31:18.141Z,50.55
2023-02-28T22:33:45.475Z,50.50
2023-02-28T22:36:13.659Z,50.48
2023-02-28T22:38:41.799Z,50.79
2023-02-28T22:41:08.670Z,50.19
2023-02-28T22:43:35.852Z,50.32
2023-02-28T22:46:04.027Z,50.21
2023-02-28T22:48:31.300Z,49.90
2023-02-28T22:51:05.427Z,50.36
2023-02-28T22:53:33.614Z,50.08
2023-02-28T22:56:00.363Z,50.03
2023-02-28T22:58:27.572Z,50.37
2023-02-28T23:00:57.911Z,50.24
2023-02-28T23:03:25.594Z,50.40
2023-02-28T23:05:52.798Z,50.50
2023-02-28T23:08:23.344Z,49.88
2023-02-28T23:10:50.753Z,50.10
2023-02-28T23:13:18.707Z,49.91
2023-02-28T23:15:45.993Z,50.16
2023-02-28T23:18:13.262Z,50.24
2023-02-28T23:20:40.225Z,50.47
2023-02-28T23:23:07.335Z,50.12
2023-02-28T23:25:34.134Z,49.86
2023-02-28T23:28:01.203Z,50.04
2023-02-28T23:30:27.994Z,50.00
2023-02-28T23:32:55.344Z,50.18
2023-02-28T23:35:22.645Z,50.27
2023-02-28T23:37:49.837Z,50.21
2023-02-28T23:40:16.975Z,50.10
2023-02-28T23:42:44.930Z,50.08
2023-02-28T23:45:11.726Z,49.95
2023-02-28T23:47:38.801Z,50.11
2023-02-28T23:50:05.989Z,50.11
2023-02-28T23:52:33.101Z,50.26
2023-02-28T23:55:00.923Z,49.89
2023-02-28T23:57:29.724Z,50.04
2023-02-28T23:59:56.650Z,50.16
